sensor_id;sensor_type;location;lat;lon;timestamp;temperature;humidity
71649;SHT31;70112;45.624;11.760;2024-03-08T00:00:13;10.68;74.71
71649;SHT31;70112;45.624;11.760;2024-03-08T00:02:43;10.66;74.71
71649;SHT31;70112;45.624;11.760;2024-03-08T00:05:10;10.65;74.76
71649;SHT31;70112;45.624;11.760;2024-03-08T00:07:37;10.64;74.70
71649;SHT31;70112;45.624;11.760;2024-03-08T00:10:03;10.63;74.70
71649;SHT31;70112;45.624;11.760;2024-03-08T00:12:30;10.62;74.66
71649;SHT31;70112;45.624;11.760;2024-03-08T00:14:56;10.60;74.60
71649;SHT31;70112;45.624;11.760;2024-03-08T00:17:21;10.60;74.64
71649;SHT31;70112;45.624;11.760;2024-03-08T00:19:50;10.58;74.60
71649;SHT31;70112;45.624;11.760;2024-03-08T00:22:16;10.57;74.65
71649;SHT31;70112;45.624;11.760;2024-03-08T00:24:42;10.57;74.75
71649;SHT31;70112;45.624;11.760;2024-03-08T00:27:08;10.57;74.71
71649;SHT31;70112;45.624;11.760;2024-03-08T00:29:34;10.55;74.73
71649;SHT31;70112;45.624;11.760;2024-03-08T00:32:00;10.54;74.78
71649;SHT31;70112;45.624;11.760;2024-03-08T00:34:26;10.53;74.71
71649;SHT31;70112;45.624;11.760;2024-03-08T00:36:52;10.52;74.70
71649;SHT31;70112;45.624;11.760;2024-03-08T00:39:17;10.51;74.77
71649;SHT31;70112;45.624;11.760;2024-03-08T00:41:46;10.50;74.67
71649;SHT31;70112;45.624;11.760;2024-03-08T00:44:11;10.47;74.62
71649;SHT31;70112;45.624;11.760;2024-03-08T00:46:37;10.46;74.60
71649;SHT31;70112;45.624;11.760;2024-03-08T00:49:03;10.45;74.52
71649;SHT31;70112;45.624;11.760;2024-03-08T00:51:28;10.43;74.67
71649;SHT31;70112;45.624;11.760;2024-03-08T00:53:54;10.44;74.60
71649;SHT31;70112;45.624;11.760;2024-03-08T00:56:20;10.44;74.60
71649;SHT31;70112;45.624;11.760;2024-03-08T00:58:45;10.43;74.60
71649;SHT31;70112;45.624;11.760;2024-03-08T01:01:12;10.44;74.56
71649;SHT31;70112;45.624;11.760;2024-03-08T01:03:42;10.45;74.44
71649;SHT31;70112;45.624;11.760;2024-03-08T01:06:08;10.46;74.56
71649;SHT31;70112;45.624;11.760;2024-03-08T01:08:34;10.45;74.56
71649;SHT31;70112;45.624;11.760;2024-03-08T01:10:59;10.45;74.51
71649;SHT31;70112;45.624;11.760;2024-03-08T01:13:24;10.46;74.48
71649;SHT31;70112;45.624;11.760;2024-03-08T01:15:50;10.45;74.49
71649;SHT31;70112;45.624;11.760;2024-03-08T01:18:15;10.44;74.50
71649;SHT31;70112;45.624;11.760;2024-03-08T01:20:41;10.44;74.41
71649;SHT31;70112;45.624;11.760;2024-03-08T01:23:07;10.43;74.38
71649;SHT31;70112;45.624;11.760;2024-03-08T01:25:33;10.43;74.37
71649;SHT31;70112;45.624;11.760;2024-03-08T01:27:59;10.44;74.48
71649;SHT31;70112;45.624;11.760;2024-03-08T01:30:25;10.42;74.42
71649;SHT31;70112;45.624;11.760;2024-03-08T01:32:50;10.43;74.38
71649;SHT31;70112;45.624;11.760;2024-03-08T01:35:15;10.42;74.22
71649;SHT31;70112;45.624;11.760;2024-03-08T01:37:41;10.42;74.03
71649;SHT31;70112;45.624;11.760;2024-03-08T01:40:07;10.40;74.00
71649;SHT31;70112;45.624;11.760;2024-03-08T01:42:33;10.40;74.02
71649;SHT31;70112;45.624;11.760;2024-03-08T01:45:04;10.39;74.06
71649;SHT31;70112;45.624;11.760;2024-03-08T01:47:31;10.40;74.06
71649;SHT31;70112;45.624;11.760;2024-03-08T01:49:58;10.39;74.02
71649;SHT31;70112;45.624;11.760;2024-03-08T01:52:31;10.39;73.97
71649;SHT31;70112;45.624;11.760;2024-03-08T01:55:01;10.38;73.89
71649;SHT31;70112;45.624;11.760;2024-03-08T01:57:32;10.39;73.75
71649;SHT31;70112;45.624;11.760;2024-03-08T02:00:01;10.39;73.70
71649;SHT31;70112;45.624;11.760;2024-03-08T02:02:31;10.38;73.64
71649;SHT31;70112;45.624;11.760;2024-03-08T02:05:00;10.39;73.74
71649;SHT31;70112;45.624;11.760;2024-03-08T02:07:26;10.38;73.68
71649;SHT31;70112;45.624;11.760;2024-03-08T02:09:51;10.37;73.74
71649;SHT31;70112;45.624;11.760;2024-03-08T02:12:17;10.37;73.65
71649;SHT31;70112;45.624;11.760;2024-03-08T02:14:45;10.36;73.70
71649;SHT31;70112;45.624;11.760;2024-03-08T02:17:12;10.36;73.63
71649;SHT31;70112;45.624;11.760;2024-03-08T02:19:38;10.36;73.57
71649;SHT31;70112;45.624;11.760;2024-03-08T02:22:03;10.36;73.62
71649;SHT31;70112;45.624;11.760;2024-03-08T02:24:30;10.35;73.64
71649;SHT31;70112;45.624;11.760;2024-03-08T02:26:57;10.33;73.60
71649;SHT31;70112;45.624;11.760;2024-03-08T02:29:22;10.31;73.52
71649;SHT31;70112;45.624;11.760;2024-03-08T02:31:50;10.29;73.50
71649;SHT31;70112;45.624;11.760;2024-03-08T02:34:16;10.28;73.50
71649;SHT31;70112;45.624;11.760;2024-03-08T02:36:42;10.25;73.47
71649;SHT31;70112;45.624;11.760;2024-03-08T02:41:32;10.22;73.56
71649;SHT31;70112;45.624;11.760;2024-03-08T02:43:58;10.22;73.65
71649;SHT31;70112;45.624;11.760;2024-03-08T02:46:25;10.20;73.62
71649;SHT31;70112;45.624;11.760;2024-03-08T02:48:50;10.18;73.60
71649;SHT31;70112;45.624;11.760;2024-03-08T02:51:16;10.19;73.66
71649;SHT31;70112;45.624;11.760;2024-03-08T02:53:41;10.19;73.72
71649;SHT31;70112;45.624;11.760;2024-03-08T02:56:08;10.17;73.79
71649;SHT31;70112;45.624;11.760;2024-03-08T02:58:37;10.18;73.79
71649;SHT31;70112;45.624;11.760;2024-03-08T03:01:03;10.17;73.68
71649;SHT31;70112;45.624;11.760;2024-03-08T03:03:28;10.18;73.61
71649;SHT31;70112;45.624;11.760;2024-03-08T03:05:54;10.19;73.68
71649;SHT31;70112;45.624;11.760;2024-03-08T03:08:22;10.18;73.70
71649;SHT31;70112;45.624;11.760;2024-03-08T03:10:49;10.17;73.68
71649;SHT31;70112;45.624;11.760;2024-03-08T03:13:14;10.17;73.70
71649;SHT31;70112;45.624;11.760;2024-03-08T03:15:40;10.16;73.64
71649;SHT31;70112;45.624;11.760;2024-03-08T03:18:08;10.14;73.60
71649;SHT31;70112;45.624;11.760;2024-03-08T03:20:33;10.12;73.50
71649;SHT31;70112;45.624;11.760;2024-03-08T03:23:05;10.11;73.60
71649;SHT31;70112;45.624;11.760;2024-03-08T03:25:33;10.13;73.60
71649;SHT31;70112;45.624;11.760;2024-03-08T03:28:03;10.14;73.63
71649;SHT31;70112;45.624;11.760;2024-03-08T03:30:29;10.13;73.72
71649;SHT31;70112;45.624;11.760;2024-03-08T03:33:01;10.13;73.71
71649;SHT31;70112;45.624;11.760;2024-03-08T03:35:31;10.14;73.80
71649;SHT31;70112;45.624;11.760;2024-03-08T03:37:57;10.13;73.78
71649;SHT31;70112;45.624;11.760;2024-03-08T03:40:35;10.13;73.80
71649;SHT31;70112;45.624;11.760;2024-03-08T03:43:04;10.11;73.62
71649;SHT31;70112;45.624;11.760;2024-03-08T03:45:30;10.10;73.49
71649;SHT31;70112;45.624;11.760;2024-03-08T03:48:00;10.08;73.38
71649;SHT31;70112;45.624;11.760;2024-03-08T03:50:27;10.06;73.36
71649;SHT31;70112;45.624;11.760;2024-03-08T03:52:53;10.01;73.30
71649;SHT31;70112;45.624;11.760;2024-03-08T03:55:18;9.99;73.39
71649;SHT31;70112;45.624;11.760;2024-03-08T03:57:45;9.96;73.27
71649;SHT31;70112;45.624;11.760;2024-03-08T04:00:11;9.95;73.12
71649;SHT31;70112;45.624;11.760;2024-03-08T04:02:37;9.93;73.19
71649;SHT31;70112;45.624;11.760;2024-03-08T04:05:04;9.92;73.19
71649;SHT31;70112;45.624;11.760;2024-03-08T04:07:32;9.91;72.98
71649;SHT31;70112;45.624;11.760;2024-03-08T04:09:57;9.89;72.97
71649;SHT31;70112;45.624;11.760;2024-03-08T04:12:23;9.86;72.98
71649;SHT31;70112;45.624;11.760;2024-03-08T04:14:48;9.85;72.84
71649;SHT31;70112;45.624;11.760;2024-03-08T04:17:14;9.83;72.78
71649;SHT31;70112;45.624;11.760;2024-03-08T04:19:40;9.79;72.88
71649;SHT31;70112;45.624;11.760;2024-03-08T04:22:06;9.78;72.95
71649;SHT31;70112;45.624;11.760;2024-03-08T04:24:32;9.77;72.85
71649;SHT31;70112;45.624;11.760;2024-03-08T04:26:59;9.77;72.76
71649;SHT31;70112;45.624;11.760;2024-03-08T04:29:24;9.76;72.79
71649;SHT31;70112;45.624;11.760;2024-03-08T04:31:50;9.75;72.95
71649;SHT31;70112;45.624;11.760;2024-03-08T04:34:19;9.75;73.00
71649;SHT31;70112;45.624;11.760;2024-03-08T04:36:46;9.74;73.03
71649;SHT31;70112;45.624;11.760;2024-03-08T04:39:13;9.74;72.96
71649;SHT31;70112;45.624;11.760;2024-03-08T04:41:40;9.74;73.01
71649;SHT31;70112;45.624;11.760;2024-03-08T04:44:09;9.73;73.08
71649;SHT31;70112;45.624;11.760;2024-03-08T04:46:37;9.68;73.09
71649;SHT31;70112;45.624;11.760;2024-03-08T04:49:03;9.67;73.15
71649;SHT31;70112;45.624;11.760;2024-03-08T04:51:29;9.67;73.10
71649;SHT31;70112;45.624;11.760;2024-03-08T04:53:54;9.65;73.06
71649;SHT31;70112;45.624;11.760;2024-03-08T04:56:20;9.65;72.95
71649;SHT31;70112;45.624;11.760;2024-03-08T04:58:46;9.63;73.01
71649;SHT31;70112;45.624;11.760;2024-03-08T05:01:12;9.62;73.10
71649;SHT31;70112;45.624;11.760;2024-03-08T05:03:38;9.62;73.25
71649;SHT31;70112;45.624;11.760;2024-03-08T05:06:04;9.62;73.40
71649;SHT31;70112;45.624;11.760;2024-03-08T05:08:29;9.64;73.53
71649;SHT31;70112;45.624;11.760;2024-03-08T05:10:55;9.63;73.61
71649;SHT31;70112;45.624;11.760;2024-03-08T05:13:21;9.63;73.60
71649;SHT31;70112;45.624;11.760;2024-03-08T05:15:49;9.65;73.71
71649;SHT31;70112;45.624;11.760;2024-03-08T05:18:17;9.64;73.69
71649;SHT31;70112;45.624;11.760;2024-03-08T05:20:43;9.64;73.76
71649;SHT31;70112;45.624;11.760;2024-03-08T05:23:08;9.65;73.78
71649;SHT31;70112;45.624;11.760;2024-03-08T05:25:34;9.66;73.95
71649;SHT31;70112;45.624;11.760;2024-03-08T05:27:59;9.66;74.08
71649;SHT31;70112;45.624;11.760;2024-03-08T05:30:25;9.66;74.13
71649;SHT31;70112;45.624;11.760;2024-03-08T05:32:50;9.67;74.27
71649;SHT31;70112;45.624;11.760;2024-03-08T05:35:16;9.66;74.37
71649;SHT31;70112;45.624;11.760;2024-03-08T05:37:42;9.67;74.49
71649;SHT31;70112;45.624;11.760;2024-03-08T05:40:08;9.68;74.64
71649;SHT31;70112;45.624;11.760;2024-03-08T05:42:35;9.68;74.62
71649;SHT31;70112;45.624;11.760;2024-03-08T05:45:01;9.68;74.66
71649;SHT31;70112;45.624;11.760;2024-03-08T05:47:35;9.68;74.66
71649;SHT31;70112;45.624;11.760;2024-03-08T05:50:00;9.68;74.72
71649;SHT31;70112;45.624;11.760;2024-03-08T05:52:25;9.66;74.74
71649;SHT31;70112;45.624;11.760;2024-03-08T05:54:51;9.66;74.78
71649;SHT31;70112;45.624;11.760;2024-03-08T05:57:17;9.65;74.80
71649;SHT31;70112;45.624;11.760;2024-03-08T05:59:42;9.65;74.88
71649;SHT31;70112;45.624;11.760;2024-03-08T06:02:08;9.65;74.84
71649;SHT31;70112;45.624;11.760;2024-03-08T06:04:33;9.64;74.87
71649;SHT31;70112;45.624;11.760;2024-03-08T06:06:59;9.64;74.90
71649;SHT31;70112;45.624;11.760;2024-03-08T06:09:24;9.62;74.92
71649;SHT31;70112;45.624;11.760;2024-03-08T06:11:51;9.61;75.00
71649;SHT31;70112;45.624;11.760;2024-03-08T06:14:19;9.62;75.07
71649;SHT31;70112;45.624;11.760;2024-03-08T06:16:45;9.62;75.10
71649;SHT31;70112;45.624;11.760;2024-03-08T06:19:11;9.61;75.09
71649;SHT31;70112;45.624;11.760;2024-03-08T06:21:38;9.58;75.12
71649;SHT31;70112;45.624;11.760;2024-03-08T06:24:03;9.58;75.20
71649;SHT31;70112;45.624;11.760;2024-03-08T06:26:30;9.57;75.21
71649;SHT31;70112;45.624;11.760;2024-03-08T06:28:55;9.54;75.24
71649;SHT31;70112;45.624;11.760;2024-03-08T06:31:21;9.54;75.29
71649;SHT31;70112;45.624;11.760;2024-03-08T06:33:47;9.55;75.25
71649;SHT31;70112;45.624;11.760;2024-03-08T06:36:17;9.54;75.19
71649;SHT31;70112;45.624;11.760;2024-03-08T06:38:49;9.54;75.20
71649;SHT31;70112;45.624;11.760;2024-03-08T06:41:15;9.54;75.16
71649;SHT31;70112;45.624;11.760;2024-03-08T06:43:41;9.55;75.18
71649;SHT31;70112;45.624;11.760;2024-03-08T06:46:11;9.54;75.18
71649;SHT31;70112;45.624;11.760;2024-03-08T06:48:40;9.53;75.13
71649;SHT31;70112;45.624;11.760;2024-03-08T06:51:06;9.54;75.20
71649;SHT31;70112;45.624;11.760;2024-03-08T06:53:32;9.56;75.20
71649;SHT31;70112;45.624;11.760;2024-03-08T06:56:00;9.54;75.19
71649;SHT31;70112;45.624;11.760;2024-03-08T06:58:26;9.53;75.12
71649;SHT31;70112;45.624;11.760;2024-03-08T07:00:52;9.52;75.19
71649;SHT31;70112;45.624;11.760;2024-03-08T07:03:18;9.54;75.26
71649;SHT31;70112;45.624;11.760;2024-03-08T07:05:47;9.56;75.24
71649;SHT31;70112;45.624;11.760;2024-03-08T07:08:13;9.56;75.17
71649;SHT31;70112;45.624;11.760;2024-03-08T07:10:39;9.54;75.10
71649;SHT31;70112;45.624;11.760;2024-03-08T07:13:06;9.53;75.10
71649;SHT31;70112;45.624;11.760;2024-03-08T07:15:33;9.53;75.13
71649;SHT31;70112;45.624;11.760;2024-03-08T07:17:58;9.56;75.22
71649;SHT31;70112;45.624;11.760;2024-03-08T07:20:25;9.55;75.21
71649;SHT31;70112;45.624;11.760;2024-03-08T07:22:50;9.54;75.25
71649;SHT31;70112;45.624;11.760;2024-03-08T07:25:16;9.52;75.21
71649;SHT31;70112;45.624;11.760;2024-03-08T07:27:54;9.51;75.29
71649;SHT31;70112;45.624;11.760;2024-03-08T07:30:21;9.51;75.26
71649;SHT31;70112;45.624;11.760;2024-03-08T07:33:08;9.51;75.23
71649;SHT31;70112;45.624;11.760;2024-03-08T07:35:36;9.49;75.29
71649;SHT31;70112;45.624;11.760;2024-03-08T07:38:08;9.49;75.22
71649;SHT31;70112;45.624;11.760;2024-03-08T07:40:38;9.50;75.12
71649;SHT31;70112;45.624;11.760;2024-03-08T07:43:09;9.50;75.07
71649;SHT31;70112;45.624;11.760;2024-03-08T07:45:36;9.50;74.94
71649;SHT31;70112;45.624;11.760;2024-03-08T07:48:03;9.49;74.78
71649;SHT31;70112;45.624;11.760;2024-03-08T07:50:38;9.48;74.69
71649;SHT31;70112;45.624;11.760;2024-03-08T07:53:05;9.48;74.56
71649;SHT31;70112;45.624;11.760;2024-03-08T07:55:33;9.47;74.32
71649;SHT31;70112;45.624;11.760;2024-03-08T07:58:00;9.44;74.13
71649;SHT31;70112;45.624;11.760;2024-03-08T08:00:28;9.41;74.04
71649;SHT31;70112;45.624;11.760;2024-03-08T08:02:56;9.41;74.20
71649;SHT31;70112;45.624;11.760;2024-03-08T08:05:22;9.39;74.12
71649;SHT31;70112;45.624;11.760;2024-03-08T08:07:47;9.37;74.11
71649;SHT31;70112;45.624;11.760;2024-03-08T08:10:13;9.36;74.16
71649;SHT31;70112;45.624;11.760;2024-03-08T08:12:50;9.35;74.10
71649;SHT31;70112;45.624;11.760;2024-03-08T08:15:19;9.34;74.15
71649;SHT31;70112;45.624;11.760;2024-03-08T08:17:45;9.33;74.31
71649;SHT31;70112;45.624;11.760;2024-03-08T08:20:11;9.32;74.31
71649;SHT31;70112;45.624;11.760;2024-03-08T08:22:40;9.33;74.27
71649;SHT31;70112;45.624;11.760;2024-03-08T08:25:08;9.33;74.13
71649;SHT31;70112;45.624;11.760;2024-03-08T08:27:34;9.31;74.14
71649;SHT31;70112;45.624;11.760;2024-03-08T08:30:02;9.28;74.00
71649;SHT31;70112;45.624;11.760;2024-03-08T08:32:32;9.29;74.04
71649;SHT31;70112;45.624;11.760;2024-03-08T08:35:01;9.29;74.19
71649;SHT31;70112;45.624;11.760;2024-03-08T08:37:31;9.31;74.31
71649;SHT31;70112;45.624;11.760;2024-03-08T08:39:57;9.32;74.24
71649;SHT31;70112;45.624;11.760;2024-03-08T08:42:23;9.29;73.97
71649;SHT31;70112;45.624;11.760;2024-03-08T08:44:49;9.26;73.82
71649;SHT31;70112;45.624;11.760;2024-03-08T08:47:15;9.26;73.90
71649;SHT31;70112;45.624;11.760;2024-03-08T08:49:44;9.27;73.81
71649;SHT31;70112;45.624;11.760;2024-03-08T08:52:11;9.27;73.90
71649;SHT31;70112;45.624;11.760;2024-03-08T08:54:37;9.28;73.94
71649;SHT31;70112;45.624;11.760;2024-03-08T08:57:03;9.29;73.90
71649;SHT31;70112;45.624;11.760;2024-03-08T08:59:32;9.29;73.83
71649;SHT31;70112;45.624;11.760;2024-03-08T09:02:01;9.29;73.83
71649;SHT31;70112;45.624;11.760;2024-03-08T09:04:29;9.29;73.76
71649;SHT31;70112;45.624;11.760;2024-03-08T09:06:56;9.29;73.73
71649;SHT31;70112;45.624;11.760;2024-03-08T09:09:22;9.25;73.47
71649;SHT31;70112;45.624;11.760;2024-03-08T09:11:47;9.21;73.40
71649;SHT31;70112;45.624;11.760;2024-03-08T09:14:14;9.19;73.42
71649;SHT31;70112;45.624;11.760;2024-03-08T09:16:40;9.19;73.43
71649;SHT31;70112;45.624;11.760;2024-03-08T09:19:06;9.20;73.27
71649;SHT31;70112;45.624;11.760;2024-03-08T09:21:32;9.21;73.16
71649;SHT31;70112;45.624;11.760;2024-03-08T09:23:59;9.20;73.17
71649;SHT31;70112;45.624;11.760;2024-03-08T09:26:26;9.19;73.09
71649;SHT31;70112;45.624;11.760;2024-03-08T09:28:51;9.17;73.09
71649;SHT31;70112;45.624;11.760;2024-03-08T09:31:17;9.17;73.12
71649;SHT31;70112;45.624;11.760;2024-03-08T09:33:43;9.19;73.11
71649;SHT31;70112;45.624;11.760;2024-03-08T09:36:08;9.19;73.00
71649;SHT31;70112;45.624;11.760;2024-03-08T09:38:34;9.19;72.92
71649;SHT31;70112;45.624;11.760;2024-03-08T09:40:59;9.18;72.87
71649;SHT31;70112;45.624;11.760;2024-03-08T09:43:27;9.18;72.80
71649;SHT31;70112;45.624;11.760;2024-03-08T09:45:53;9.19;72.81
71649;SHT31;70112;45.624;11.760;2024-03-08T09:48:20;9.21;72.79
71649;SHT31;70112;45.624;11.760;2024-03-08T09:50:47;9.23;72.76
71649;SHT31;70112;45.624;11.760;2024-03-08T09:53:13;9.26;72.79
71649;SHT31;70112;45.624;11.760;2024-03-08T09:55:39;9.25;72.78
71649;SHT31;70112;45.624;11.760;2024-03-08T09:58:10;9.27;72.77
71649;SHT31;70112;45.624;11.760;2024-03-08T10:00:53;9.26;72.61
71649;SHT31;70112;45.624;11.760;2024-03-08T10:03:26;9.25;72.61
71649;SHT31;70112;45.624;11.760;2024-03-08T10:05:52;9.24;72.63
71649;SHT31;70112;45.624;11.760;2024-03-08T10:08:25;9.27;72.65
71649;SHT31;70112;45.624;11.760;2024-03-08T10:10:54;9.26;72.43
71649;SHT31;70112;45.624;11.760;2024-03-08T10:13:23;9.27;72.52
71649;SHT31;70112;45.624;11.760;2024-03-08T10:15:52;9.27;72.41
71649;SHT31;70112;45.624;11.760;2024-03-08T10:18:19;9.25;72.19
71649;SHT31;70112;45.624;11.760;2024-03-08T10:20:46;9.25;72.03
71649;SHT31;70112;45.624;11.760;2024-03-08T10:23:28;9.27;71.99
71649;SHT31;70112;45.624;11.760;2024-03-08T10:25:55;9.29;71.98
71649;SHT31;70112;45.624;11.760;2024-03-08T10:28:23;9.30;72.00
71649;SHT31;70112;45.624;11.760;2024-03-08T10:30:53;9.31;71.94
71649;SHT31;70112;45.624;11.760;2024-03-08T10:33:23;9.32;71.83
71649;SHT31;70112;45.624;11.760;2024-03-08T10:35:48;9.31;71.94
71649;SHT31;70112;45.624;11.760;2024-03-08T10:38:13;9.33;71.87
71649;SHT31;70112;45.624;11.760;2024-03-08T10:40:45;9.35;71.66
71649;SHT31;70112;45.624;11.760;2024-03-08T10:43:12;9.35;71.53
71649;SHT31;70112;45.624;11.760;2024-03-08T10:45:52;9.38;71.48
71649;SHT31;70112;45.624;11.760;2024-03-08T10:48:43;9.39;71.23
71649;SHT31;70112;45.624;11.760;2024-03-08T10:51:11;9.41;71.24
71649;SHT31;70112;45.624;11.760;2024-03-08T10:53:37;9.42;71.40
71649;SHT31;70112;45.624;11.760;2024-03-08T10:56:06;9.44;71.56
71649;SHT31;70112;45.624;11.760;2024-03-08T10:58:34;9.46;71.64
71649;SHT31;70112;45.624;11.760;2024-03-08T11:01:01;9.46;71.67
71649;SHT31;70112;45.624;11.760;2024-03-08T11:06:16;9.48;71.93
71649;SHT31;70112;45.624;11.760;2024-03-08T11:08:47;9.50;71.98
71649;SHT31;70112;45.624;11.760;2024-03-08T11:11:31;9.47;71.92
71649;SHT31;70112;45.624;11.760;2024-03-08T11:14:07;9.42;71.83
71649;SHT31;70112;45.624;11.760;2024-03-08T11:17:08;9.39;71.89
71649;SHT31;70112;45.624;11.760;2024-03-08T11:19:33;9.38;71.93
71649;SHT31;70112;45.624;11.760;2024-03-08T11:22:00;9.37;71.94
71649;SHT31;70112;45.624;11.760;2024-03-08T11:24:27;9.36;71.92
71649;SHT31;70112;45.624;11.760;2024-03-08T11:26:59;9.33;71.92
71649;SHT31;70112;45.624;11.760;2024-03-08T11:32:07;9.29;72.05
71649;SHT31;70112;45.624;11.760;2024-03-08T11:34:38;9.28;72.26
71649;SHT31;70112;45.624;11.760;2024-03-08T11:37:12;9.28;72.40
71649;SHT31;70112;45.624;11.760;2024-03-08T11:39:40;9.25;72.44
71649;SHT31;70112;45.624;11.760;2024-03-08T11:42:12;9.22;72.50
71649;SHT31;70112;45.624;11.760;2024-03-08T11:44:37;9.19;72.61
71649;SHT31;70112;45.624;11.760;2024-03-08T11:47:07;9.17;72.70
71649;SHT31;70112;45.624;11.760;2024-03-08T11:49:35;9.14;72.77
71649;SHT31;70112;45.624;11.760;2024-03-08T11:52:01;9.12;72.97
71649;SHT31;70112;45.624;11.760;2024-03-08T11:54:28;9.12;73.08
71649;SHT31;70112;45.624;11.760;2024-03-08T11:56:55;9.11;73.16
71649;SHT31;70112;45.624;11.760;2024-03-08T11:59:25;9.12;73.22
71649;SHT31;70112;45.624;11.760;2024-03-08T12:02:01;9.14;73.38
71649;SHT31;70112;45.624;11.760;2024-03-08T12:04:29;9.16;73.42
71649;SHT31;70112;45.624;11.760;2024-03-08T12:06:57;9.14;73.30
71649;SHT31;70112;45.624;11.760;2024-03-08T12:09:30;9.15;73.30
71649;SHT31;70112;45.624;11.760;2024-03-08T12:11:55;9.14;73.28
71649;SHT31;70112;45.624;11.760;2024-03-08T12:14:24;9.11;73.32
71649;SHT31;70112;45.624;11.760;2024-03-08T12:16:50;9.09;73.30
71649;SHT31;70112;45.624;11.760;2024-03-08T12:19:16;9.07;73.33
71649;SHT31;70112;45.624;11.760;2024-03-08T12:21:42;9.07;73.44
71649;SHT31;70112;45.624;11.760;2024-03-08T12:24:14;9.07;73.49
71649;SHT31;70112;45.624;11.760;2024-03-08T12:26:45;9.07;73.48
71649;SHT31;70112;45.624;11.760;2024-03-08T12:29:24;9.06;73.45
71649;SHT31;70112;45.624;11.760;2024-03-08T12:31:52;9.06;73.50
71649;SHT31;70112;45.624;11.760;2024-03-08T12:34:23;9.07;73.59
71649;SHT31;70112;45.624;11.760;2024-03-08T12:36:49;9.07;73.60
71649;SHT31;70112;45.624;11.760;2024-03-08T12:39:19;9.08;73.56
71649;SHT31;70112;45.624;11.760;2024-03-08T12:41:47;9.09;73.60
71649;SHT31;70112;45.624;11.760;2024-03-08T12:44:16;9.12;73.62
71649;SHT31;70112;45.624;11.760;2024-03-08T12:46:44;9.14;73.63
71649;SHT31;70112;45.624;11.760;2024-03-08T12:49:10;9.14;73.42
71649;SHT31;70112;45.624;11.760;2024-03-08T12:51:37;9.14;73.28
71649;SHT31;70112;45.624;11.760;2024-03-08T12:54:04;9.15;73.30
71649;SHT31;70112;45.624;11.760;2024-03-08T12:56:32;9.18;73.19
71649;SHT31;70112;45.624;11.760;2024-03-08T12:59:00;9.19;73.07
71649;SHT31;70112;45.624;11.760;2024-03-08T13:01:26;9.20;73.05
71649;SHT31;70112;45.624;11.760;2024-03-08T13:03:52;9.22;73.13
71649;SHT31;70112;45.624;11.760;2024-03-08T13:06:20;9.23;73.00
71649;SHT31;70112;45.624;11.760;2024-03-08T13:08:49;9.27;72.99
71649;SHT31;70112;45.624;11.760;2024-03-08T13:11:19;9.28;72.97
71649;SHT31;70112;45.624;11.760;2024-03-08T13:13:45;9.30;73.01
71649;SHT31;70112;45.624;11.760;2024-03-08T13:16:11;9.33;72.90
71649;SHT31;70112;45.624;11.760;2024-03-08T13:18:40;9.35;72.71
71649;SHT31;70112;45.624;11.760;2024-03-08T13:21:09;9.38;72.65
71649;SHT31;70112;45.624;11.760;2024-03-08T13:23:37;9.42;72.50
71649;SHT31;70112;45.624;11.760;2024-03-08T13:26:09;9.46;72.39
71649;SHT31;70112;45.624;11.760;2024-03-08T13:28:40;9.49;72.25
71649;SHT31;70112;45.624;11.760;2024-03-08T13:31:13;9.51;72.16
71649;SHT31;70112;45.624;11.760;2024-03-08T13:33:40;9.53;71.97
71649;SHT31;70112;45.624;11.760;2024-03-08T13:36:11;9.54;71.77
71649;SHT31;70112;45.624;11.760;2024-03-08T13:38:44;9.56;71.90
71649;SHT31;70112;45.624;11.760;2024-03-08T13:41:11;9.60;72.00
71649;SHT31;70112;45.624;11.760;2024-03-08T13:43:40;9.62;71.94
71649;SHT31;70112;45.624;11.760;2024-03-08T13:46:06;9.65;71.87
71649;SHT31;70112;45.624;11.760;2024-03-08T13:48:33;9.64;71.96
71649;SHT31;70112;45.624;11.760;2024-03-08T13:50:59;9.66;72.00
71649;SHT31;70112;45.624;11.760;2024-03-08T13:53:25;9.69;71.86
71649;SHT31;70112;45.624;11.760;2024-03-08T13:55:51;9.71;71.79
71649;SHT31;70112;45.624;11.760;2024-03-08T13:58:17;9.73;71.77
71649;SHT31;70112;45.624;11.760;2024-03-08T14:00:42;9.75;71.73
71649;SHT31;70112;45.624;11.760;2024-03-08T14:03:11;9.76;71.61
71649;SHT31;70112;45.624;11.760;2024-03-08T14:05:40;9.76;71.33
71649;SHT31;70112;45.624;11.760;2024-03-08T14:08:07;9.73;71.01
71649;SHT31;70112;45.624;11.760;2024-03-08T14:10:37;9.72;70.95
71649;SHT31;70112;45.624;11.760;2024-03-08T14:13:03;9.73;70.93
71649;SHT31;70112;45.624;11.760;2024-03-08T14:15:33;9.75;70.99
71649;SHT31;70112;45.624;11.760;2024-03-08T14:18:00;9.77;70.83
71649;SHT31;70112;45.624;11.760;2024-03-08T14:20:26;9.78;70.66
71649;SHT31;70112;45.624;11.760;2024-03-08T14:22:53;9.79;70.53
71649;SHT31;70112;45.624;11.760;2024-03-08T14:25:21;9.82;70.50
71649;SHT31;70112;45.624;11.760;2024-03-08T14:27:51;9.86;70.36
71649;SHT31;70112;45.624;11.760;2024-03-08T14:30:18;9.87;70.31
71649;SHT31;70112;45.624;11.760;2024-03-08T14:33:03;9.89;70.43
71649;SHT31;70112;45.624;11.760;2024-03-08T14:35:30;9.89;70.38
71649;SHT31;70112;45.624;11.760;2024-03-08T14:37:57;9.90;70.49
71649;SHT31;70112;45.624;11.760;2024-03-08T14:40:23;9.88;70.61
71649;SHT31;70112;45.624;11.760;2024-03-08T14:42:51;9.87;70.60
71649;SHT31;70112;45.624;11.760;2024-03-08T14:45:17;9.86;70.74
71649;SHT31;70112;45.624;11.760;2024-03-08T14:47:45;9.86;70.90
71649;SHT31;70112;45.624;11.760;2024-03-08T14:50:15;9.85;70.89
71649;SHT31;70112;45.624;11.760;2024-03-08T14:52:45;9.85;70.90
71649;SHT31;70112;45.624;11.760;2024-03-08T14:55:14;9.84;70.88
71649;SHT31;70112;45.624;11.760;2024-03-08T14:57:41;9.85;70.77
71649;SHT31;70112;45.624;11.760;2024-03-08T15:00:07;9.86;70.69
71649;SHT31;70112;45.624;11.760;2024-03-08T15:02:41;9.88;70.67
71649;SHT31;70112;45.624;11.760;2024-03-08T15:05:08;9.88;70.57
71649;SHT31;70112;45.624;11.760;2024-03-08T15:07:37;9.88;70.45
71649;SHT31;70112;45.624;11.760;2024-03-08T15:10:05;9.89;70.40
71649;SHT31;70112;45.624;11.760;2024-03-08T15:12:41;9.88;70.39
71649;SHT31;70112;45.624;11.760;2024-03-08T15:15:11;9.88;70.38
71649;SHT31;70112;45.624;11.760;2024-03-08T15:17:39;9.88;70.27
71649;SHT31;70112;45.624;11.760;2024-03-08T15:20:08;9.89;70.38
71649;SHT31;70112;45.624;11.760;2024-03-08T15:22:42;9.90;70.45
71649;SHT31;70112;45.624;11.760;2024-03-08T15:25:09;9.91;70.53
71649;SHT31;70112;45.624;11.760;2024-03-08T15:27:45;9.92;70.64
71649;SHT31;70112;45.624;11.760;2024-03-08T15:30:12;9.90;70.57
71649;SHT31;70112;45.624;11.760;2024-03-08T15:32:45;9.91;70.45
71649;SHT31;70112;45.624;11.760;2024-03-08T15:35:13;9.91;70.49
71649;SHT31;70112;45.624;11.760;2024-03-08T15:37:42;9.91;70.43